createdAt,value
2018-03-18T00:02:01.943Z,40.58
2018-03-18T00:04:29.612Z,40.15
2018-03-18T00:06:57.227Z,40.08
2018-03-18T00:09:25.617Z,36.65
2018-03-18T00:11:53.310Z,39.55
2018-03-18T00:14:20.926Z,42.05
2018-03-18T00:16:48.607Z,46.45
2018-03-18T00:19:16.229Z,42.33
2018-03-18T00:21:43.830Z,38.88
2018-03-18T00:24:12.237Z,43.83
2018-03-18T00:26:39.830Z,41.13
2018-03-18T00:29:07.454Z,40.00
2018-03-18T00:31:35.078Z,45.42
2018-03-18T00:34:03.497Z,38.95
2018-03-18T00:36:31.114Z,47.10
2018-03-18T00:38:58.745Z,39.10
2018-03-18T00:41:26.332Z,45.58
2018-03-18T00:43:53.951Z,42.75
2018-03-18T00:46:21.626Z,41.92
2018-03-18T00:48:49.213Z,44.05
2018-03-18T00:51:28.707Z,45.25
2018-03-18T00:53:56.344Z,46.22
2018-03-18T00:56:24.718Z,42.42
2018-03-18T00:58:53.063Z,43.20
2018-03-18T01:01:23.018Z,43.72
2018-03-18T01:03:51.424Z,38.35
2018-03-18T01:06:19.029Z,52.45
2018-03-18T01:08:46.640Z,42.38
2018-03-18T01:11:14.273Z,44.60
2018-03-18T01:13:42.619Z,37.95
2018-03-18T01:16:10.236Z,41.37
2018-03-18T01:18:37.866Z,56.35
2018-03-18T01:21:05.455Z,37.70
2018-03-18T01:23:33.028Z,39.25
2018-03-18T01:26:00.652Z,40.67
2018-03-18T01:28:29.009Z,39.92
2018-03-18T01:30:56.634Z,35.10
2018-03-18T01:33:24.214Z,48.85
2018-03-18T01:35:51.866Z,43.50
2018-03-18T01:38:19.430Z,44.22
2018-03-18T01:40:47.034Z,44.88
2018-03-18T01:43:15.430Z,46.83
2018-03-18T01:45:43.771Z,45.03
2018-03-18T01:48:11.412Z,47.33
2018-03-18T01:50:38.996Z,42.08
2018-03-18T01:53:18.426Z,55.33
2018-03-18T01:55:46.066Z,43.90
2018-03-18T01:58:13.682Z,40.28
2018-03-18T02:00:42.030Z,41.15
2018-03-18T02:03:09.658Z,48.03
2018-03-18T02:05:37.227Z,47.33
2018-03-18T02:08:04.858Z,45.55
2018-03-18T02:10:33.266Z,42.40
2018-03-18T02:13:03.954Z,47.45
2018-03-18T02:15:33.747Z,42.35
2018-03-18T02:18:07.081Z,46.33
2018-03-18T02:20:36.703Z,41.75
2018-03-18T02:23:05.198Z,44.53
2018-03-18T02:25:34.720Z,39.65
2018-03-18T02:28:05.255Z,46.00
2018-03-18T02:30:33.760Z,47.13
2018-03-18T02:33:03.348Z,40.95
2018-03-18T02:35:37.638Z,50.03
2018-03-18T02:38:07.352Z,41.95
2018-03-18T02:40:38.318Z,47.42
2018-03-18T02:43:08.146Z,45.50
2018-03-18T02:45:37.944Z,41.40
2018-03-18T02:48:08.066Z,42.55
2018-03-18T02:50:39.552Z,43.67
2018-03-18T02:53:07.967Z,41.42
2018-03-18T02:55:35.578Z,29.17
2018-03-18T02:58:03.189Z,51.70
2018-03-18T03:00:30.805Z,39.00
2018-03-18T03:02:58.391Z,50.92
2018-03-18T03:05:26.022Z,46.58
2018-03-18T03:07:53.608Z,46.40
2018-03-18T03:10:21.995Z,36.55
2018-03-18T03:12:49.591Z,48.20
2018-03-18T03:15:17.229Z,40.17
2018-03-18T03:17:44.824Z,52.42
2018-03-18T03:20:12.443Z,32.45
2018-03-18T03:22:40.024Z,46.95
2018-03-18T03:25:07.608Z,35.00
2018-03-18T03:27:35.237Z,45.83
2018-03-18T03:30:02.832Z,38.20
2018-03-18T03:32:30.467Z,48.08
2018-03-18T03:34:58.058Z,37.50
2018-03-18T03:37:25.665Z,37.30
2018-03-18T03:39:54.070Z,39.38
2018-03-18T03:42:21.649Z,37.88
2018-03-18T03:44:49.240Z,42.35
2018-03-18T03:47:16.849Z,34.88
2018-03-18T03:49:44.452Z,41.40
2018-03-18T03:52:12.115Z,49.65
2018-03-18T03:54:39.723Z,40.85
2018-03-18T03:57:07.348Z,47.05
2018-03-18T03:59:34.946Z,31.87
2018-03-18T04:02:02.554Z,47.47
2018-03-18T04:04:30.192Z,40.60
2018-03-18T04:06:57.791Z,43.60
2018-03-18T04:09:25.417Z,42.45
2018-03-18T04:11:53.034Z,40.95
2018-03-18T04:14:21.379Z,38.63
2018-03-18T04:16:49.057Z,40.63
2018-03-18T04:19:16.649Z,40.90
2018-03-18T04:21:44.994Z,37.33
2018-03-18T04:24:13.493Z,35.88
2018-03-18T04:26:41.833Z,43.03
2018-03-18T04:29:09.493Z,41.35
2018-03-18T04:31:37.070Z,37.17
2018-03-18T04:34:04.742Z,40.08
2018-03-18T04:36:33.128Z,34.78
2018-03-18T04:39:00.742Z,41.53
2018-03-18T04:41:28.340Z,31.35
2018-03-18T04:43:55.961Z,36.47
2018-03-18T04:46:23.546Z,36.28
2018-03-18T04:48:51.178Z,39.28
2018-03-18T04:51:18.831Z,34.88
2018-03-18T04:53:46.448Z,34.20
2018-03-18T04:56:14.040Z,46.60
2018-03-18T04:58:42.416Z,39.08
2018-03-18T05:01:10.787Z,33.15
2018-03-18T05:03:39.165Z,35.85
2018-03-18T05:06:07.570Z,31.48
2018-03-18T05:08:35.142Z,39.58
2018-03-18T05:11:02.757Z,36.13
2018-03-18T05:13:30.366Z,41.97
2018-03-18T05:15:58.006Z,38.28
2018-03-18T05:18:25.599Z,39.53
2018-03-18T05:20:53.260Z,45.30
2018-03-18T05:23:20.855Z,35.13
2018-03-18T05:25:48.480Z,37.67
2018-03-18T05:28:16.088Z,35.20
2018-03-18T05:30:43.654Z,31.80
2018-03-18T05:33:11.281Z,37.40
2018-03-18T05:35:38.871Z,41.65
2018-03-18T05:38:06.498Z,42.35
2018-03-18T05:40:34.064Z,36.05
2018-03-18T05:43:01.666Z,44.45
2018-03-18T05:45:30.066Z,35.92
2018-03-18T05:47:57.653Z,38.13
2018-03-18T05:50:26.041Z,37.72
2018-03-18T05:52:53.603Z,43.47
2018-03-18T05:55:21.261Z,39.38
2018-03-18T05:57:48.853Z,34.90
2018-03-18T06:00:16.423Z,38.90
2018-03-18T06:02:44.035Z,36.20
2018-03-18T06:05:11.612Z,30.85
2018-03-18T06:07:39.222Z,25.40
2018-03-18T06:10:07.661Z,35.85
2018-03-18T06:12:35.292Z,37.65
2018-03-18T06:15:02.882Z,33.33
2018-03-18T06:17:30.538Z,28.80
2018-03-18T06:19:58.118Z,39.38
2018-03-18T06:22:25.728Z,28.98
2018-03-18T06:24:53.376Z,34.75
2018-03-18T06:27:20.958Z,48.50
2018-03-18T06:29:48.538Z,36.80
2018-03-18T06:32:16.135Z,44.30
2018-03-18T06:34:43.815Z,34.38
2018-03-18T06:37:11.421Z,33.92
2018-03-18T06:39:38.999Z,38.95
2018-03-18T06:42:06.624Z,37.75
2018-03-18T06:44:34.199Z,33.83
2018-03-18T06:47:02.617Z,32.08
2018-03-18T06:49:30.211Z,37.47
2018-03-18T06:51:58.594Z,33.00
2018-03-18T06:54:26.178Z,33.85
2018-03-18T06:56:53.786Z,34.35
2018-03-18T06:59:21.397Z,33.67
2018-03-18T07:01:49.019Z,31.15
2018-03-18T07:04:16.636Z,24.58
2018-03-18T07:06:44.250Z,33.10
2018-03-18T07:09:12.626Z,26.87
2018-03-18T07:11:40.988Z,25.67
2018-03-18T07:14:08.594Z,34.40
2018-03-18T07:16:36.194Z,30.62
2018-03-18T07:19:03.778Z,25.25
2018-03-18T07:21:31.401Z,27.75
2018-03-18T07:23:59.041Z,31.75
2018-03-18T07:26:26.622Z,22.83
2018-03-18T07:28:54.262Z,28.05
2018-03-18T07:31:21.850Z,31.90
2018-03-18T07:33:49.466Z,26.52
2018-03-18T07:36:17.104Z,27.77
2018-03-18T07:38:44.724Z,25.37
2018-03-18T07:41:12.380Z,30.88
2018-03-18T07:43:39.959Z,28.08
2018-03-18T07:46:07.575Z,28.10
2018-03-18T07:48:35.916Z,26.40
2018-03-18T07:51:03.562Z,25.20
2018-03-18T07:53:31.174Z,24.52
2018-03-18T07:55:59.535Z,29.50
2018-03-18T07:58:27.181Z,28.95
2018-03-18T08:00:54.799Z,28.65
2018-03-18T08:03:23.146Z,28.98
2018-03-18T08:05:51.550Z,32.00
2018-03-18T08:08:19.182Z,24.02
2018-03-18T08:10:46.755Z,33.80
2018-03-18T08:13:15.134Z,25.85
2018-03-18T08:15:43.484Z,27.60
2018-03-18T08:18:11.159Z,32.08
2018-03-18T08:20:38.812Z,30.42
2018-03-18T08:23:06.397Z,26.60
2018-03-18T08:25:34.757Z,25.40
2018-03-18T08:28:02.387Z,33.85
2018-03-18T08:30:29.975Z,25.45
2018-03-18T08:32:57.619Z,23.98
2018-03-18T08:35:25.304Z,26.58
2018-03-18T08:37:52.883Z,27.75
2018-03-18T08:40:20.577Z,31.85
2018-03-18T08:42:48.196Z,26.48
2018-03-18T08:45:15.818Z,16.75
2018-03-18T08:47:43.414Z,28.50
2018-03-18T08:50:11.063Z,33.47
2018-03-18T08:52:38.692Z,29.83
2018-03-18T08:55:06.274Z,26.23
2018-03-18T08:57:33.907Z,25.20
2018-03-18T09:00:01.504Z,27.62
2018-03-18T09:02:29.122Z,26.45
2018-03-18T09:04:56.708Z,34.90
2018-03-18T09:07:24.323Z,27.13
2018-03-18T09:09:51.935Z,23.77
2018-03-18T09:12:19.579Z,24.10
2018-03-18T09:14:47.235Z,34.55
2018-03-18T09:17:14.838Z,29.75
2018-03-18T09:19:42.426Z,28.77
2018-03-18T09:22:10.840Z,24.73
2018-03-18T09:24:38.421Z,24.37
2018-03-18T09:27:06.809Z,27.67
2018-03-18T09:29:34.413Z,30.65
2018-03-18T09:32:02.808Z,32.97
2018-03-18T09:34:30.402Z,24.98
2018-03-18T09:36:57.971Z,27.35
2018-03-18T09:39:25.635Z,27.60
2018-03-18T09:41:53.270Z,22.13
2018-03-18T09:44:20.858Z,23.30
2018-03-18T09:46:48.521Z,23.30
2018-03-18T09:49:16.143Z,23.15
2018-03-18T09:51:43.839Z,26.50
2018-03-18T09:54:11.436Z,29.10
2018-03-18T09:56:39.078Z,27.23
2018-03-18T09:59:06.701Z,28.58
2018-03-18T10:01:34.274Z,30.52
2018-03-18T10:04:01.904Z,32.20
2018-03-18T10:06:30.302Z,33.47
2018-03-18T10:08:57.942Z,24.92
2018-03-18T10:11:26.340Z,24.17
2018-03-18T10:13:53.915Z,30.30
2018-03-18T10:16:21.541Z,26.62
2018-03-18T10:18:49.952Z,35.15
2018-03-18T10:21:17.575Z,31.35
2018-03-18T10:23:45.992Z,29.52
2018-03-18T10:26:13.625Z,27.25
2018-03-18T10:28:42.044Z,32.67
2018-03-18T10:31:09.629Z,29.10
2018-03-18T10:33:37.250Z,24.70
2018-03-18T10:36:04.862Z,25.27
2018-03-18T10:38:32.446Z,27.02
2018-03-18T10:41:00.801Z,29.02
2018-03-18T10:43:28.446Z,28.27
2018-03-18T10:45:56.042Z,27.62
2018-03-18T10:48:23.630Z,25.80
2018-03-18T10:50:51.242Z,34.53
2018-03-18T10:53:18.809Z,22.45
2018-03-18T10:55:46.440Z,26.25
2018-03-18T10:58:14.843Z,25.40
2018-03-18T11:00:44.246Z,26.73
2018-03-18T11:03:11.863Z,30.35
2018-03-18T11:05:40.241Z,30.27
2018-03-18T11:08:07.900Z,26.90
2018-03-18T11:10:35.560Z,24.37
2018-03-18T11:13:03.163Z,22.25
2018-03-18T11:15:30.775Z,32.40
2018-03-18T11:17:59.118Z,25.08
2018-03-18T11:20:26.754Z,21.87
2018-03-18T11:22:54.362Z,30.20
2018-03-18T11:25:22.003Z,39.55
2018-03-18T11:27:49.622Z,24.02
2018-03-18T11:30:17.244Z,28.17
2018-03-18T11:32:44.877Z,21.77
2018-03-18T11:35:12.570Z,25.10
2018-03-18T11:37:40.207Z,29.05
2018-03-18T11:40:07.804Z,20.20
2018-03-18T11:42:35.453Z,30.88
2018-03-18T11:45:03.857Z,21.75
2018-03-18T11:47:31.425Z,27.23
2018-03-18T11:49:59.048Z,20.02
2018-03-18T11:52:26.646Z,26.60
2018-03-18T11:54:54.289Z,22.85
2018-03-18T11:57:21.943Z,18.65
2018-03-18T11:59:50.326Z,37.90
2018-03-18T12:02:18.683Z,25.17
2018-03-18T12:04:46.367Z,21.50
2018-03-18T12:07:14.790Z,21.70
2018-03-18T12:09:42.403Z,24.83
2018-03-18T12:12:10.844Z,29.10
2018-03-18T12:14:38.433Z,21.80
2018-03-18T12:17:06.030Z,29.17
2018-03-18T12:19:33.630Z,37.08
2018-03-18T12:22:01.265Z,22.98
2018-03-18T12:24:29.646Z,24.73
2018-03-18T12:26:57.251Z,25.50
2018-03-18T12:29:24.874Z,24.87
2018-03-18T12:31:52.453Z,28.52
2018-03-18T12:34:20.109Z,25.33
2018-03-18T12:36:47.696Z,24.37
2018-03-18T12:39:15.259Z,24.98
2018-03-18T12:41:42.878Z,20.85
2018-03-18T12:44:10.474Z,24.48
2018-03-18T12:46:38.076Z,29.87
2018-03-18T12:49:06.441Z,28.25
2018-03-18T12:51:34.020Z,21.70
2018-03-18T12:54:02.402Z,28.52
2018-03-18T12:56:30.747Z,35.60
2018-03-18T12:58:58.372Z,30.75
2018-03-18T13:01:26.006Z,22.40
2018-03-18T13:03:53.603Z,27.60
2018-03-18T13:06:21.191Z,25.20
2018-03-18T13:08:48.852Z,28.62
2018-03-18T13:11:16.475Z,27.45
2018-03-18T13:13:44.065Z,24.45
2018-03-18T13:16:12.498Z,19.67
2018-03-18T13:18:40.119Z,25.00
2018-03-18T13:21:07.750Z,23.70
2018-03-18T13:23:35.411Z,24.58
2018-03-18T13:26:03.065Z,22.45
2018-03-18T13:28:30.709Z,41.72
2018-03-18T13:30:58.372Z,34.63
2018-03-18T13:33:26.036Z,28.70
2018-03-18T13:35:53.824Z,23.52
2018-03-18T13:38:21.440Z,24.90
2018-03-18T13:40:49.823Z,25.52
2018-03-18T13:43:18.163Z,24.25
2018-03-18T13:45:45.776Z,23.33
2018-03-18T13:48:14.127Z,19.55
2018-03-18T13:50:41.749Z,32.58
2018-03-18T13:53:09.322Z,21.17
2018-03-18T13:55:36.906Z,32.03
2018-03-18T13:58:04.534Z,26.80
2018-03-18T14:00:32.123Z,24.23
2018-03-18T14:02:59.759Z,24.00
2018-03-18T14:05:27.340Z,21.30
2018-03-18T14:07:54.921Z,26.37
2018-03-18T14:10:22.544Z,20.25
2018-03-18T14:12:50.148Z,25.30
2018-03-18T14:15:18.527Z,24.55
2018-03-18T14:17:46.905Z,33.20
2018-03-18T14:20:15.277Z,24.08
2018-03-18T14:22:42.890Z,18.75
2018-03-18T14:25:10.563Z,20.58
2018-03-18T14:27:38.159Z,33.10
2018-03-18T14:30:05.831Z,33.70
2018-03-18T14:32:33.511Z,28.25
2018-03-18T14:35:01.151Z,21.95
2018-03-18T14:37:28.807Z,32.55
2018-03-18T14:39:56.439Z,25.05
2018-03-18T14:42:24.058Z,22.67
2018-03-18T14:44:52.458Z,22.77
2018-03-18T14:47:20.062Z,21.08
2018-03-18T14:49:47.699Z,25.90
2018-03-18T14:52:15.291Z,22.80
2018-03-18T14:54:42.918Z,17.95
2018-03-18T14:57:10.526Z,25.10
2018-03-18T14:59:38.127Z,24.92
2018-03-18T15:02:05.798Z,24.20
2018-03-18T15:04:33.444Z,21.40
2018-03-18T15:07:01.098Z,16.25
2018-03-18T15:09:29.442Z,25.00
2018-03-18T15:11:57.059Z,20.70
2018-03-18T15:14:24.675Z,25.92
2018-03-18T15:16:52.308Z,21.60
2018-03-18T15:19:19.879Z,20.77
2018-03-18T15:21:47.518Z,26.75
2018-03-18T15:24:15.909Z,23.48
2018-03-18T15:26:43.534Z,23.55
2018-03-18T15:29:11.224Z,25.10
2018-03-18T15:31:38.796Z,21.10
2018-03-18T15:34:08.047Z,21.98
2018-03-18T15:36:36.437Z,34.35
2018-03-18T15:39:04.054Z,26.75
2018-03-18T15:41:31.655Z,22.83
2018-03-18T15:43:59.258Z,29.50
2018-03-18T15:46:26.868Z,22.05
2018-03-18T15:48:55.248Z,22.95
2018-03-18T15:51:23.767Z,22.45
2018-03-18T15:53:51.311Z,23.27
2018-03-18T15:56:18.899Z,26.75
2018-03-18T15:58:46.515Z,25.15
2018-03-18T16:01:14.917Z,28.52
2018-03-18T16:03:42.489Z,24.10
2018-03-18T16:06:10.100Z,25.50
2018-03-18T16:08:38.515Z,24.40
2018-03-18T16:11:06.095Z,23.55
2018-03-18T16:13:33.731Z,28.75
2018-03-18T16:16:01.319Z,39.42
2018-03-18T16:18:28.904Z,27.15
2018-03-18T16:20:56.548Z,27.58
2018-03-18T16:23:24.140Z,24.00
2018-03-18T16:25:52.528Z,23.67
2018-03-18T16:28:20.103Z,23.65
2018-03-18T16:31:00.350Z,20.85
2018-03-18T16:33:28.760Z,26.50
2018-03-18T16:35:56.342Z,23.83
2018-03-18T16:38:23.922Z,25.52
2018-03-18T16:40:51.544Z,27.17
2018-03-18T16:43:19.121Z,23.48
2018-03-18T16:45:46.737Z,24.15
2018-03-18T16:48:14.391Z,25.60
2018-03-18T16:50:42.766Z,37.20
2018-03-18T16:53:11.163Z,24.35
2018-03-18T16:55:39.511Z,26.05
2018-03-18T16:58:07.225Z,28.12
2018-03-18T17:00:34.833Z,20.80
2018-03-18T17:03:02.422Z,32.75
2018-03-18T17:05:30.836Z,29.65
2018-03-18T17:07:58.420Z,22.15
2018-03-18T17:10:26.044Z,39.15
2018-03-18T17:12:54.389Z,25.37
2018-03-18T17:15:22.037Z,34.33
2018-03-18T17:17:49.685Z,21.98
2018-03-18T17:20:17.263Z,27.15
2018-03-18T17:22:44.836Z,23.90
2018-03-18T17:25:12.459Z,27.20
2018-03-18T17:27:40.046Z,23.85
2018-03-18T17:30:07.690Z,18.90
2018-03-18T17:32:35.318Z,21.87
2018-03-18T17:35:02.927Z,23.25
2018-03-18T17:37:30.538Z,24.35
2018-03-18T17:39:58.151Z,37.33
2018-03-18T17:42:25.794Z,23.52
2018-03-18T17:45:05.201Z,30.30
2018-03-18T17:47:44.808Z,27.37
2018-03-18T17:50:19.335Z,25.35
2018-03-18T17:52:58.956Z,27.00
2018-03-18T17:55:31.196Z,28.90
2018-03-18T17:57:58.833Z,25.88
2018-03-18T18:00:27.163Z,23.33
2018-03-18T18:02:54.800Z,41.70
2018-03-18T18:05:22.377Z,24.92
2018-03-18T18:07:50.014Z,21.87
2018-03-18T18:10:17.681Z,23.23
2018-03-18T18:12:45.998Z,28.87
2018-03-18T18:15:13.612Z,27.65
2018-03-18T18:17:41.328Z,23.00
2018-03-18T18:20:08.898Z,24.90
2018-03-18T18:22:36.490Z,28.15
2018-03-18T18:25:04.222Z,25.08
2018-03-18T18:27:31.871Z,27.48
2018-03-18T18:29:59.455Z,28.05
2018-03-18T18:32:27.050Z,19.12
2018-03-18T18:34:54.674Z,24.25
2018-03-18T18:37:22.283Z,30.10
2018-03-18T18:39:49.936Z,26.70
2018-03-18T18:42:17.544Z,28.40
2018-03-18T18:44:45.952Z,23.08
2018-03-18T18:47:13.594Z,17.87
2018-03-18T18:49:42.026Z,26.15
2018-03-18T18:52:09.628Z,24.65
2018-03-18T18:54:37.221Z,26.65
2018-03-18T18:57:04.845Z,25.15
2018-03-18T18:59:32.463Z,28.77
2018-03-18T19:02:00.159Z,23.73
2018-03-18T19:04:27.812Z,31.80
2018-03-18T19:06:55.406Z,19.83
2018-03-18T19:09:23.030Z,24.23
2018-03-18T19:11:50.663Z,24.63
2018-03-18T19:14:18.241Z,26.17
2018-03-18T19:16:45.928Z,29.08
2018-03-18T19:19:13.502Z,27.83
2018-03-18T19:21:41.138Z,26.62
2018-03-18T19:24:08.712Z,18.77
2018-03-18T19:26:36.342Z,23.85
2018-03-18T19:29:03.934Z,31.55
2018-03-18T19:31:31.534Z,30.05
2018-03-18T19:33:59.142Z,23.58
2018-03-18T19:36:26.755Z,25.02
2018-03-18T19:38:54.377Z,23.52
2018-03-18T19:41:21.994Z,32.30
2018-03-18T19:43:49.607Z,25.83
2018-03-18T19:46:17.226Z,24.25
2018-03-18T19:48:44.858Z,22.83
2018-03-18T19:51:12.506Z,21.58
2018-03-18T19:53:40.184Z,22.75
2018-03-18T19:56:07.795Z,22.27
2018-03-18T19:58:35.426Z,20.90
2018-03-18T20:01:03.355Z,24.70
2018-03-18T20:03:30.941Z,23.27
2018-03-18T20:05:58.575Z,22.73
2018-03-18T20:08:26.203Z,22.37
2018-03-18T20:10:53.884Z,21.50
2018-03-18T20:13:21.538Z,23.62
2018-03-18T20:15:49.140Z,32.97
2018-03-18T20:18:16.788Z,26.00
2018-03-18T20:20:44.362Z,29.75
2018-03-18T20:23:11.996Z,30.05
2018-03-18T20:25:39.570Z,36.15
2018-03-18T20:28:07.216Z,23.80
2018-03-18T20:30:34.782Z,25.02
2018-03-18T20:33:02.431Z,24.12
2018-03-18T20:35:30.063Z,33.53
2018-03-18T20:37:58.483Z,24.37
2018-03-18T20:40:26.118Z,31.37
2018-03-18T20:42:53.745Z,26.52
2018-03-18T20:45:22.144Z,27.20
2018-03-18T20:47:49.798Z,24.92
2018-03-18T20:50:17.410Z,22.62
2018-03-18T20:52:45.051Z,30.17
2018-03-18T20:55:12.660Z,25.27
2018-03-18T20:57:40.304Z,21.23
2018-03-18T21:00:07.926Z,24.35
2018-03-18T21:02:37.819Z,34.58
2018-03-18T21:05:06.218Z,31.60
2018-03-18T21:07:33.886Z,24.60
2018-03-18T21:10:01.524Z,21.73
2018-03-18T21:12:29.122Z,27.45
2018-03-18T21:14:56.758Z,27.42
2018-03-18T21:17:25.099Z,27.00
2018-03-18T21:19:52.698Z,27.85
2018-03-18T21:22:20.402Z,24.30
2018-03-18T21:24:48.023Z,27.10
2018-03-18T21:27:15.637Z,25.27
2018-03-18T21:29:43.267Z,24.27
2018-03-18T21:32:10.852Z,28.35
2018-03-18T21:34:39.193Z,26.45
2018-03-18T21:37:06.807Z,24.48
2018-03-18T21:39:34.398Z,27.42
2018-03-18T21:42:02.812Z,24.70
2018-03-18T21:44:30.403Z,27.70
2018-03-18T21:46:58.032Z,25.83
2018-03-18T21:49:25.663Z,24.35
2018-03-18T21:51:54.071Z,33.13
2018-03-18T21:54:21.699Z,26.98
2018-03-18T21:56:50.091Z,23.60
2018-03-18T21:59:18.496Z,33.10
2018-03-18T22:01:46.095Z,24.75
2018-03-18T22:04:13.704Z,25.60
2018-03-18T22:06:41.351Z,23.40
2018-03-18T22:09:09.744Z,31.17
2018-03-18T22:11:37.376Z,24.80
2018-03-18T22:14:04.957Z,31.60
2018-03-18T22:16:33.335Z,26.80
2018-03-18T22:19:01.720Z,32.22
2018-03-18T22:21:30.155Z,31.33
2018-03-18T22:23:57.770Z,29.33
2018-03-18T22:26:25.415Z,37.60
2018-03-18T22:28:53.825Z,33.42
2018-03-18T22:31:22.206Z,30.73
2018-03-18T22:33:50.591Z,23.83
2018-03-18T22:36:18.176Z,25.33
2018-03-18T22:38:45.824Z,25.85
2018-03-18T22:41:13.436Z,23.73
2018-03-18T22:43:41.050Z,26.30
2018-03-18T22:46:08.675Z,23.70
2018-03-18T22:48:37.069Z,28.12
2018-03-18T22:51:04.675Z,23.98
2018-03-18T22:53:32.295Z,25.85
2018-03-18T22:55:59.918Z,29.40
2018-03-18T22:58:27.534Z,31.52
2018-03-18T23:00:55.125Z,24.98
2018-03-18T23:03:22.756Z,27.50
2018-03-18T23:05:50.382Z,29.33
2018-03-18T23:08:18.783Z,33.58
2018-03-18T23:10:46.362Z,26.58
2018-03-18T23:13:13.977Z,32.75
2018-03-18T23:15:42.374Z,30.37
2018-03-18T23:18:10.012Z,21.75
2018-03-18T23:20:38.351Z,22.58
2018-03-18T23:23:05.970Z,31.12
2018-03-18T23:25:34.365Z,24.20
2018-03-18T23:28:01.949Z,29.45
2018-03-18T23:30:29.584Z,29.83
2018-03-18T23:32:57.166Z,23.23
2018-03-18T23:35:24.783Z,26.95
2018-03-18T23:37:53.127Z,29.27
2018-03-18T23:40:20.767Z,28.77
2018-03-18T23:42:48.339Z,26.10
2018-03-18T23:45:15.969Z,27.48
2018-03-18T23:47:43.543Z,25.23
2018-03-18T23:50:11.166Z,33.72
2018-03-18T23:52:39.511Z,31.12
2018-03-18T23:55:07.195Z,26.05
2018-03-18T23:57:34.820Z,28.92
